sensor_id;sensor_type;location;lat;lon;timestamp;P1;durP1;ratioP1;P2;durP2;ratioP2
35518;SDS011;21627;48.216;16.482;2023-03-23T00:01:57;11.30;;;7.80;;
35518;SDS011;21627;48.216;16.482;2023-03-23T00:04:24;12.77;;;7.32;;
35518;SDS011;21627;48.216;16.482;2023-03-23T00:06:51;13.07;;;7.72;;
35518;SDS011;21627;48.216;16.482;2023-03-23T00:09:17;15.10;;;7.50;;
35518;SDS011;21627;48.216;16.482;2023-03-23T00:11:48;14.35;;;7.90;;
35518;SDS011;21627;48.216;16.482;2023-03-23T00:14:16;14.73;;;7.85;;
35518;SDS011;21627;48.216;16.482;2023-03-23T00:16:47;16.55;;;7.32;;
35518;SDS011;21627;48.216;16.482;2023-03-23T00:19:15;15.95;;;7.90;;
35518;SDS011;21627;48.216;16.482;2023-03-23T00:21:44;18.50;;;8.23;;
35518;SDS011;21627;48.216;16.482;2023-03-23T00:26:46;11.98;;;7.30;;
35518;SDS011;21627;48.216;16.482;2023-03-23T00:29:18;17.58;;;7.78;;
35518;SDS011;21627;48.216;16.482;2023-03-23T00:31:49;18.42;;;7.75;;
35518;SDS011;21627;48.216;16.482;2023-03-23T00:34:16;16.75;;;8.15;;
35518;SDS011;21627;48.216;16.482;2023-03-23T00:36:46;12.73;;;8.63;;
35518;SDS011;21627;48.216;16.482;2023-03-23T00:39:18;12.13;;;8.10;;
35518;SDS011;21627;48.216;16.482;2023-03-23T00:41:45;11.45;;;7.63;;
35518;SDS011;21627;48.216;16.482;2023-03-23T00:44:12;13.60;;;8.43;;
35518;SDS011;21627;48.216;16.482;2023-03-23T00:46:42;16.60;;;8.15;;
35518;SDS011;21627;48.216;16.482;2023-03-23T00:49:20;11.50;;;7.82;;
35518;SDS011;21627;48.216;16.482;2023-03-23T00:51:50;25.50;;;8.18;;
35518;SDS011;21627;48.216;16.482;2023-03-23T00:54:21;10.35;;;7.60;;
35518;SDS011;21627;48.216;16.482;2023-03-23T00:56:48;13.55;;;8.15;;
35518;SDS011;21627;48.216;16.482;2023-03-23T00:59:15;11.13;;;7.63;;
35518;SDS011;21627;48.216;16.482;2023-03-23T01:01:43;14.18;;;8.75;;
35518;SDS011;21627;48.216;16.482;2023-03-23T01:04:09;10.93;;;7.50;;
35518;SDS011;21627;48.216;16.482;2023-03-23T01:06:38;12.60;;;7.82;;
35518;SDS011;21627;48.216;16.482;2023-03-23T01:09:07;13.18;;;7.53;;
35518;SDS011;21627;48.216;16.482;2023-03-23T01:11:36;11.40;;;7.75;;
35518;SDS011;21627;48.216;16.482;2023-03-23T01:14:03;13.55;;;8.10;;
35518;SDS011;21627;48.216;16.482;2023-03-23T01:16:30;17.05;;;8.30;;
35518;SDS011;21627;48.216;16.482;2023-03-23T01:18:56;13.73;;;7.95;;
35518;SDS011;21627;48.216;16.482;2023-03-23T01:21:22;11.57;;;7.03;;
35518;SDS011;21627;48.216;16.482;2023-03-23T01:23:50;14.13;;;8.20;;
35518;SDS011;21627;48.216;16.482;2023-03-23T01:26:23;11.98;;;7.57;;
35518;SDS011;21627;48.216;16.482;2023-03-23T01:28:52;13.55;;;7.65;;
35518;SDS011;21627;48.216;16.482;2023-03-23T01:31:19;11.40;;;7.40;;
35518;SDS011;21627;48.216;16.482;2023-03-23T01:33:49;14.20;;;8.38;;
35518;SDS011;21627;48.216;16.482;2023-03-23T01:36:17;14.90;;;8.88;;
35518;SDS011;21627;48.216;16.482;2023-03-23T01:38:46;11.82;;;8.30;;
35518;SDS011;21627;48.216;16.482;2023-03-23T01:41:15;11.73;;;8.20;;
35518;SDS011;21627;48.216;16.482;2023-03-23T01:43:59;10.95;;;7.97;;
35518;SDS011;21627;48.216;16.482;2023-03-23T01:46:31;12.18;;;7.93;;
35518;SDS011;21627;48.216;16.482;2023-03-23T01:49:01;12.88;;;7.68;;
35518;SDS011;21627;48.216;16.482;2023-03-23T01:51:37;14.48;;;8.38;;
35518;SDS011;21627;48.216;16.482;2023-03-23T01:54:09;11.30;;;7.55;;
35518;SDS011;21627;48.216;16.482;2023-03-23T01:56:39;15.25;;;7.63;;
35518;SDS011;21627;48.216;16.482;2023-03-23T01:59:12;12.40;;;7.85;;
35518;SDS011;21627;48.216;16.482;2023-03-23T02:01:43;14.15;;;7.97;;
35518;SDS011;21627;48.216;16.482;2023-03-23T02:04:12;10.45;;;7.43;;
35518;SDS011;21627;48.216;16.482;2023-03-23T02:06:41;10.30;;;7.72;;
35518;SDS011;21627;48.216;16.482;2023-03-23T02:09:10;13.40;;;8.13;;
35518;SDS011;21627;48.216;16.482;2023-03-23T02:11:47;10.68;;;7.40;;
35518;SDS011;21627;48.216;16.482;2023-03-23T02:14:15;15.23;;;8.88;;
35518;SDS011;21627;48.216;16.482;2023-03-23T02:16:46;14.05;;;8.25;;
35518;SDS011;21627;48.216;16.482;2023-03-23T02:34:13;12.70;;;8.10;;
35518;SDS011;21627;48.216;16.482;2023-03-23T02:36:49;14.13;;;8.27;;
35518;SDS011;21627;48.216;16.482;2023-03-23T02:39:43;11.93;;;7.25;;
35518;SDS011;21627;48.216;16.482;2023-03-23T02:42:41;12.43;;;8.35;;
35518;SDS011;21627;48.216;16.482;2023-03-23T02:45:12;13.52;;;8.30;;
35518;SDS011;21627;48.216;16.482;2023-03-23T02:47:41;12.07;;;7.90;;
35518;SDS011;21627;48.216;16.482;2023-03-23T02:50:09;11.82;;;7.70;;
35518;SDS011;21627;48.216;16.482;2023-03-23T02:52:40;16.30;;;8.95;;
35518;SDS011;21627;48.216;16.482;2023-03-23T02:55:08;11.50;;;8.02;;
35518;SDS011;21627;48.216;16.482;2023-03-23T02:57:39;12.90;;;8.32;;
35518;SDS011;21627;48.216;16.482;2023-03-23T03:00:06;15.55;;;8.30;;
35518;SDS011;21627;48.216;16.482;2023-03-23T03:02:36;17.23;;;8.77;;
35518;SDS011;21627;48.216;16.482;2023-03-23T03:13:35;13.70;;;8.63;;
35518;SDS011;21627;48.216;16.482;2023-03-23T03:19:00;17.48;;;8.13;;
35518;SDS011;21627;48.216;16.482;2023-03-23T03:21:45;12.40;;;7.65;;
35518;SDS011;21627;48.216;16.482;2023-03-23T03:24:15;11.90;;;8.00;;
35518;SDS011;21627;48.216;16.482;2023-03-23T03:26:45;12.10;;;7.53;;
35518;SDS011;21627;48.216;16.482;2023-03-23T03:29:16;13.60;;;7.68;;
35518;SDS011;21627;48.216;16.482;2023-03-23T03:31:49;10.48;;;7.95;;
35518;SDS011;21627;48.216;16.482;2023-03-23T03:34:20;17.55;;;9.35;;
35518;SDS011;21627;48.216;16.482;2023-03-23T03:36:49;15.20;;;8.25;;
35518;SDS011;21627;48.216;16.482;2023-03-23T03:39:20;12.68;;;8.20;;
35518;SDS011;21627;48.216;16.482;2023-03-23T03:41:46;16.85;;;7.93;;
35518;SDS011;21627;48.216;16.482;2023-03-23T03:44:13;13.48;;;8.38;;
35518;SDS011;21627;48.216;16.482;2023-03-23T03:46:40;17.60;;;8.38;;
35518;SDS011;21627;48.216;16.482;2023-03-23T03:49:07;15.45;;;8.90;;
35518;SDS011;21627;48.216;16.482;2023-03-23T03:51:38;14.25;;;8.52;;
35518;SDS011;21627;48.216;16.482;2023-03-23T03:54:05;13.75;;;7.85;;
35518;SDS011;21627;48.216;16.482;2023-03-23T03:56:31;13.73;;;8.18;;
35518;SDS011;21627;48.216;16.482;2023-03-23T03:59:01;16.38;;;8.85;;
35518;SDS011;21627;48.216;16.482;2023-03-23T04:01:28;12.60;;;8.57;;
35518;SDS011;21627;48.216;16.482;2023-03-23T04:03:54;12.80;;;7.97;;
35518;SDS011;21627;48.216;16.482;2023-03-23T04:06:21;14.57;;;8.60;;
35518;SDS011;21627;48.216;16.482;2023-03-23T04:08:47;13.25;;;9.25;;
35518;SDS011;21627;48.216;16.482;2023-03-23T04:11:13;16.55;;;8.98;;
35518;SDS011;21627;48.216;16.482;2023-03-23T04:13:40;13.15;;;8.98;;
35518;SDS011;21627;48.216;16.482;2023-03-23T04:16:07;14.05;;;8.98;;
35518;SDS011;21627;48.216;16.482;2023-03-23T04:18:34;18.55;;;9.30;;
35518;SDS011;21627;48.216;16.482;2023-03-23T04:21:03;13.13;;;8.85;;
35518;SDS011;21627;48.216;16.482;2023-03-23T04:23:33;14.00;;;8.23;;
35518;SDS011;21627;48.216;16.482;2023-03-23T04:26:01;14.30;;;7.88;;
35518;SDS011;21627;48.216;16.482;2023-03-23T04:28:29;12.57;;;8.20;;
35518;SDS011;21627;48.216;16.482;2023-03-23T04:30:59;16.80;;;8.90;;
35518;SDS011;21627;48.216;16.482;2023-03-23T04:33:26;15.70;;;8.00;;
35518;SDS011;21627;48.216;16.482;2023-03-23T04:35:56;11.50;;;7.88;;
35518;SDS011;21627;48.216;16.482;2023-03-23T04:38:26;13.80;;;8.00;;
35518;SDS011;21627;48.216;16.482;2023-03-23T04:40:54;14.75;;;8.32;;
35518;SDS011;21627;48.216;16.482;2023-03-23T04:43:22;11.00;;;7.97;;
35518;SDS011;21627;48.216;16.482;2023-03-23T04:45:53;9.95;;;7.82;;
35518;SDS011;21627;48.216;16.482;2023-03-23T04:48:22;14.25;;;8.00;;
35518;SDS011;21627;48.216;16.482;2023-03-23T04:50:53;24.83;;;8.45;;
35518;SDS011;21627;48.216;16.482;2023-03-23T04:53:19;16.27;;;8.57;;
35518;SDS011;21627;48.216;16.482;2023-03-23T04:55:47;11.80;;;8.50;;
35518;SDS011;21627;48.216;16.482;2023-03-23T04:58:14;12.18;;;7.95;;
35518;SDS011;21627;48.216;16.482;2023-03-23T05:00:41;18.05;;;8.05;;
35518;SDS011;21627;48.216;16.482;2023-03-23T05:03:18;14.73;;;9.05;;
35518;SDS011;21627;48.216;16.482;2023-03-23T05:05:45;12.93;;;8.57;;
35518;SDS011;21627;48.216;16.482;2023-03-23T05:08:20;15.68;;;8.93;;
35518;SDS011;21627;48.216;16.482;2023-03-23T05:10:51;12.35;;;8.80;;
35518;SDS011;21627;48.216;16.482;2023-03-23T05:13:20;14.20;;;8.50;;
35518;SDS011;21627;48.216;16.482;2023-03-23T05:15:47;13.82;;;9.65;;
35518;SDS011;21627;48.216;16.482;2023-03-23T05:18:13;12.73;;;9.05;;
35518;SDS011;21627;48.216;16.482;2023-03-23T05:20:40;14.18;;;9.23;;
35518;SDS011;21627;48.216;16.482;2023-03-23T05:23:07;14.25;;;9.30;;
35518;SDS011;21627;48.216;16.482;2023-03-23T05:25:35;14.75;;;9.07;;
35518;SDS011;21627;48.216;16.482;2023-03-23T05:28:09;13.27;;;9.20;;
35518;SDS011;21627;48.216;16.482;2023-03-23T05:30:37;14.63;;;9.02;;
35518;SDS011;21627;48.216;16.482;2023-03-23T05:33:04;16.40;;;9.15;;
35518;SDS011;21627;48.216;16.482;2023-03-23T05:35:30;12.77;;;9.07;;
35518;SDS011;21627;48.216;16.482;2023-03-23T05:37:56;18.58;;;9.88;;
35518;SDS011;21627;48.216;16.482;2023-03-23T05:40:23;19.10;;;9.65;;
35518;SDS011;21627;48.216;16.482;2023-03-23T05:42:51;17.35;;;9.98;;
35518;SDS011;21627;48.216;16.482;2023-03-23T05:45:18;17.88;;;9.48;;
35518;SDS011;21627;48.216;16.482;2023-03-23T05:47:44;16.40;;;10.00;;
35518;SDS011;21627;48.216;16.482;2023-03-23T05:50:11;20.50;;;11.70;;
35518;SDS011;21627;48.216;16.482;2023-03-23T05:52:38;18.90;;;11.07;;
35518;SDS011;21627;48.216;16.482;2023-03-23T05:55:05;20.88;;;10.18;;
35518;SDS011;21627;48.216;16.482;2023-03-23T05:57:33;15.82;;;9.95;;
35518;SDS011;21627;48.216;16.482;2023-03-23T05:59:59;15.02;;;9.95;;
35518;SDS011;21627;48.216;16.482;2023-03-23T06:02:32;18.73;;;10.65;;
35518;SDS011;21627;48.216;16.482;2023-03-23T06:04:59;19.65;;;9.88;;
35518;SDS011;21627;48.216;16.482;2023-03-23T06:07:25;22.67;;;11.02;;
35518;SDS011;21627;48.216;16.482;2023-03-23T06:09:52;20.00;;;10.38;;
35518;SDS011;21627;48.216;16.482;2023-03-23T06:12:18;22.27;;;10.80;;
35518;SDS011;21627;48.216;16.482;2023-03-23T06:14:47;16.92;;;10.43;;
35518;SDS011;21627;48.216;16.482;2023-03-23T06:17:17;24.33;;;10.80;;
35518;SDS011;21627;48.216;16.482;2023-03-23T06:19:43;24.27;;;10.80;;
35518;SDS011;21627;48.216;16.482;2023-03-23T06:22:13;21.63;;;11.07;;
35518;SDS011;21627;48.216;16.482;2023-03-23T06:24:40;25.15;;;10.65;;
35518;SDS011;21627;48.216;16.482;2023-03-23T06:27:06;17.48;;;10.20;;
35518;SDS011;21627;48.216;16.482;2023-03-23T06:29:34;23.95;;;10.93;;
35518;SDS011;21627;48.216;16.482;2023-03-23T06:32:01;29.77;;;11.82;;
35518;SDS011;21627;48.216;16.482;2023-03-23T06:34:29;24.30;;;12.02;;
35518;SDS011;21627;48.216;16.482;2023-03-23T06:36:57;19.98;;;10.73;;
35518;SDS011;21627;48.216;16.482;2023-03-23T06:39:24;25.52;;;10.32;;
35518;SDS011;21627;48.216;16.482;2023-03-23T06:41:50;18.42;;;10.73;;
35518;SDS011;21627;48.216;16.482;2023-03-23T06:44:16;23.88;;;10.85;;
35518;SDS011;21627;48.216;16.482;2023-03-23T06:46:42;22.20;;;10.77;;
35518;SDS011;21627;48.216;16.482;2023-03-23T06:49:08;25.23;;;10.82;;
35518;SDS011;21627;48.216;16.482;2023-03-23T06:51:35;21.00;;;11.45;;
35518;SDS011;21627;48.216;16.482;2023-03-23T06:54:03;26.65;;;11.50;;
35518;SDS011;21627;48.216;16.482;2023-03-23T06:56:30;22.45;;;11.88;;
35518;SDS011;21627;48.216;16.482;2023-03-23T06:58:56;21.38;;;12.20;;
35518;SDS011;21627;48.216;16.482;2023-03-23T07:01:22;20.08;;;11.52;;
35518;SDS011;21627;48.216;16.482;2023-03-23T07:03:49;13.52;;;9.85;;
35518;SDS011;21627;48.216;16.482;2023-03-23T07:06:15;19.25;;;10.43;;
35518;SDS011;21627;48.216;16.482;2023-03-23T07:08:41;18.67;;;10.45;;
35518;SDS011;21627;48.216;16.482;2023-03-23T07:11:10;19.15;;;11.35;;
35518;SDS011;21627;48.216;16.482;2023-03-23T07:13:36;19.00;;;12.02;;
35518;SDS011;21627;48.216;16.482;2023-03-23T07:16:04;20.10;;;11.32;;
35518;SDS011;21627;48.216;16.482;2023-03-23T07:18:31;21.80;;;13.68;;
35518;SDS011;21627;48.216;16.482;2023-03-23T07:20:58;31.38;;;14.73;;
35518;SDS011;21627;48.216;16.482;2023-03-23T07:23:24;22.48;;;14.90;;
35518;SDS011;21627;48.216;16.482;2023-03-23T07:25:50;24.38;;;14.00;;
35518;SDS011;21627;48.216;16.482;2023-03-23T07:28:20;22.35;;;13.85;;
35518;SDS011;21627;48.216;16.482;2023-03-23T07:30:46;26.13;;;14.98;;
35518;SDS011;21627;48.216;16.482;2023-03-23T07:33:12;20.75;;;14.07;;
35518;SDS011;21627;48.216;16.482;2023-03-23T07:35:39;19.50;;;13.55;;
35518;SDS011;21627;48.216;16.482;2023-03-23T07:38:05;19.40;;;12.38;;
35518;SDS011;21627;48.216;16.482;2023-03-23T07:40:32;18.35;;;13.55;;
35518;SDS011;21627;48.216;16.482;2023-03-23T07:42:58;18.88;;;12.88;;
35518;SDS011;21627;48.216;16.482;2023-03-23T07:45:26;21.70;;;12.10;;
35518;SDS011;21627;48.216;16.482;2023-03-23T07:47:53;23.85;;;13.00;;
35518;SDS011;21627;48.216;16.482;2023-03-23T07:50:19;19.17;;;12.25;;
35518;SDS011;21627;48.216;16.482;2023-03-23T07:52:50;21.15;;;11.45;;
35518;SDS011;21627;48.216;16.482;2023-03-23T07:55:18;17.17;;;10.70;;
35518;SDS011;21627;48.216;16.482;2023-03-23T07:57:46;17.17;;;10.38;;
35518;SDS011;21627;48.216;16.482;2023-03-23T08:00:17;23.23;;;11.52;;
35518;SDS011;21627;48.216;16.482;2023-03-23T08:02:46;20.75;;;10.40;;
35518;SDS011;21627;48.216;16.482;2023-03-23T08:05:14;19.83;;;11.25;;
35518;SDS011;21627;48.216;16.482;2023-03-23T08:07:41;19.17;;;10.65;;
35518;SDS011;21627;48.216;16.482;2023-03-23T08:10:08;16.20;;;10.45;;
35518;SDS011;21627;48.216;16.482;2023-03-23T08:12:39;14.20;;;9.98;;
35518;SDS011;21627;48.216;16.482;2023-03-23T08:15:08;16.45;;;10.18;;
35518;SDS011;21627;48.216;16.482;2023-03-23T08:17:42;18.40;;;11.23;;
35518;SDS011;21627;48.216;16.482;2023-03-23T08:20:10;17.90;;;10.45;;
35518;SDS011;21627;48.216;16.482;2023-03-23T08:22:40;17.88;;;10.70;;
35518;SDS011;21627;48.216;16.482;2023-03-23T08:25:12;17.23;;;10.27;;
35518;SDS011;21627;48.216;16.482;2023-03-23T08:27:39;13.27;;;9.48;;
35518;SDS011;21627;48.216;16.482;2023-03-23T08:30:12;15.07;;;9.68;;
35518;SDS011;21627;48.216;16.482;2023-03-23T08:32:42;16.42;;;9.20;;
35518;SDS011;21627;48.216;16.482;2023-03-23T08:35:09;22.00;;;10.65;;
35518;SDS011;21627;48.216;16.482;2023-03-23T08:37:38;18.05;;;10.13;;
35518;SDS011;21627;48.216;16.482;2023-03-23T08:40:07;12.85;;;9.38;;
35518;SDS011;21627;48.216;16.482;2023-03-23T08:42:36;18.80;;;9.65;;
35518;SDS011;21627;48.216;16.482;2023-03-23T08:45:07;15.45;;;9.77;;
35518;SDS011;21627;48.216;16.482;2023-03-23T08:47:37;17.20;;;9.40;;
35518;SDS011;21627;48.216;16.482;2023-03-23T08:50:04;11.90;;;7.97;;
35518;SDS011;21627;48.216;16.482;2023-03-23T08:52:33;13.63;;;8.30;;
35518;SDS011;21627;48.216;16.482;2023-03-23T08:54:59;17.55;;;8.80;;
35518;SDS011;21627;48.216;16.482;2023-03-23T08:57:25;16.52;;;9.95;;
35518;SDS011;21627;48.216;16.482;2023-03-23T08:59:52;13.95;;;9.23;;
35518;SDS011;21627;48.216;16.482;2023-03-23T09:02:20;17.70;;;9.50;;
35518;SDS011;21627;48.216;16.482;2023-03-23T09:04:49;18.25;;;9.65;;
35518;SDS011;21627;48.216;16.482;2023-03-23T09:07:15;18.30;;;10.45;;
35518;SDS011;21627;48.216;16.482;2023-03-23T09:09:41;13.93;;;9.32;;
35518;SDS011;21627;48.216;16.482;2023-03-23T09:12:08;22.75;;;8.85;;
35518;SDS011;21627;48.216;16.482;2023-03-23T09:14:35;16.08;;;9.05;;
35518;SDS011;21627;48.216;16.482;2023-03-23T09:17:02;17.27;;;9.85;;
35518;SDS011;21627;48.216;16.482;2023-03-23T09:19:30;16.05;;;9.13;;
35518;SDS011;21627;48.216;16.482;2023-03-23T09:21:59;17.83;;;9.35;;
35518;SDS011;21627;48.216;16.482;2023-03-23T09:24:25;15.80;;;9.50;;
35518;SDS011;21627;48.216;16.482;2023-03-23T09:26:52;15.02;;;10.05;;
35518;SDS011;21627;48.216;16.482;2023-03-23T09:29:18;15.65;;;10.00;;
35518;SDS011;21627;48.216;16.482;2023-03-23T09:31:46;21.17;;;9.45;;
35518;SDS011;21627;48.216;16.482;2023-03-23T09:34:13;14.20;;;8.63;;
35518;SDS011;21627;48.216;16.482;2023-03-23T09:36:41;14.07;;;8.75;;
35518;SDS011;21627;48.216;16.482;2023-03-23T09:39:11;19.38;;;9.40;;
35518;SDS011;21627;48.216;16.482;2023-03-23T09:44:21;11.65;;;8.65;;
35518;SDS011;21627;48.216;16.482;2023-03-23T09:50:06;14.65;;;8.65;;
35518;SDS011;21627;48.216;16.482;2023-03-23T09:55:39;15.57;;;9.23;;
35518;SDS011;21627;48.216;16.482;2023-03-23T10:03:38;14.07;;;8.50;;
35518;SDS011;21627;48.216;16.482;2023-03-23T10:06:14;15.00;;;8.77;;
35518;SDS011;21627;48.216;16.482;2023-03-23T10:08:56;13.32;;;8.43;;
35518;SDS011;21627;48.216;16.482;2023-03-23T10:25:48;12.15;;;7.50;;
35518;SDS011;21627;48.216;16.482;2023-03-23T10:28:48;15.38;;;7.70;;
35518;SDS011;21627;48.216;16.482;2023-03-23T10:31:32;18.88;;;7.53;;
35518;SDS011;21627;48.216;16.482;2023-03-23T10:34:11;16.80;;;7.57;;
35518;SDS011;21627;48.216;16.482;2023-03-23T10:36:59;12.35;;;6.85;;
35518;SDS011;21627;48.216;16.482;2023-03-23T10:39:38;9.77;;;7.35;;
35518;SDS011;21627;48.216;16.482;2023-03-23T10:44:56;12.95;;;6.85;;
35518;SDS011;21627;48.216;16.482;2023-03-23T10:47:26;12.45;;;6.45;;
35518;SDS011;21627;48.216;16.482;2023-03-23T10:57:38;13.63;;;6.57;;
35518;SDS011;21627;48.216;16.482;2023-03-23T11:00:18;14.90;;;6.20;;
35518;SDS011;21627;48.216;16.482;2023-03-23T11:08:32;10.25;;;5.65;;
35518;SDS011;21627;48.216;16.482;2023-03-23T11:11:19;18.95;;;5.75;;
35518;SDS011;21627;48.216;16.482;2023-03-23T11:14:02;9.25;;;5.30;;
35518;SDS011;21627;48.216;16.482;2023-03-23T11:16:52;10.13;;;5.65;;
35518;SDS011;21627;48.216;16.482;2023-03-23T11:19:23;15.70;;;5.43;;
35518;SDS011;21627;48.216;16.482;2023-03-23T11:22:00;12.90;;;5.50;;
35518;SDS011;21627;48.216;16.482;2023-03-23T11:24:31;8.20;;;5.15;;
35518;SDS011;21627;48.216;16.482;2023-03-23T11:27:08;8.75;;;6.03;;
35518;SDS011;21627;48.216;16.482;2023-03-23T11:29:47;13.05;;;5.10;;
35518;SDS011;21627;48.216;16.482;2023-03-23T11:32:18;15.02;;;5.60;;
35518;SDS011;21627;48.216;16.482;2023-03-23T11:34:53;11.30;;;5.22;;
35518;SDS011;21627;48.216;16.482;2023-03-23T11:37:29;16.98;;;5.75;;
35518;SDS011;21627;48.216;16.482;2023-03-23T11:45:40;19.73;;;5.97;;
35518;SDS011;21627;48.216;16.482;2023-03-23T11:51:51;14.25;;;5.82;;
35518;SDS011;21627;48.216;16.482;2023-03-23T11:57:09;10.68;;;5.07;;
35518;SDS011;21627;48.216;16.482;2023-03-23T11:59:38;11.15;;;4.95;;
35518;SDS011;21627;48.216;16.482;2023-03-23T12:08:25;12.77;;;5.53;;
35518;SDS011;21627;48.216;16.482;2023-03-23T12:14:58;17.98;;;5.38;;
35518;SDS011;21627;48.216;16.482;2023-03-23T12:49:21;7.47;;;4.13;;
35518;SDS011;21627;48.216;16.482;2023-03-23T12:55:06;14.25;;;4.15;;
35518;SDS011;21627;48.216;16.482;2023-03-23T12:57:58;10.75;;;4.30;;
35518;SDS011;21627;48.216;16.482;2023-03-23T13:11:58;13.15;;;3.85;;
35518;SDS011;21627;48.216;16.482;2023-03-23T13:17:24;10.07;;;3.47;;
35518;SDS011;21627;48.216;16.482;2023-03-23T13:23:15;10.52;;;3.65;;
35518;SDS011;21627;48.216;16.482;2023-03-23T13:25:52;17.65;;;3.80;;
35518;SDS011;21627;48.216;16.482;2023-03-23T13:28:26;11.03;;;3.73;;
35518;SDS011;21627;48.216;16.482;2023-03-23T13:31:13;11.13;;;4.30;;
35518;SDS011;21627;48.216;16.482;2023-03-23T13:33:51;8.25;;;3.83;;
35518;SDS011;21627;48.216;16.482;2023-03-23T13:36:28;9.60;;;3.70;;
35518;SDS011;21627;48.216;16.482;2023-03-23T13:39:01;8.80;;;3.28;;
35518;SDS011;21627;48.216;16.482;2023-03-23T13:41:33;8.10;;;4.20;;
35518;SDS011;21627;48.216;16.482;2023-03-23T13:44:17;4.65;;;3.13;;
35518;SDS011;21627;48.216;16.482;2023-03-23T13:47:36;5.05;;;2.58;;
35518;SDS011;21627;48.216;16.482;2023-03-23T13:50:05;5.40;;;2.45;;
35518;SDS011;21627;48.216;16.482;2023-03-23T13:52:53;4.90;;;2.20;;
35518;SDS011;21627;48.216;16.482;2023-03-23T14:03:04;7.32;;;2.88;;
35518;SDS011;21627;48.216;16.482;2023-03-23T14:10:55;6.32;;;2.30;;
35518;SDS011;21627;48.216;16.482;2023-03-23T14:14:50;4.97;;;2.20;;
35518;SDS011;21627;48.216;16.482;2023-03-23T14:17:05;3.22;;;2.35;;
35518;SDS011;21627;48.216;16.482;2023-03-23T14:19:32;4.75;;;2.47;;
35518;SDS011;21627;48.216;16.482;2023-03-23T14:22:04;7.25;;;2.67;;
35518;SDS011;21627;48.216;16.482;2023-03-23T14:24:41;5.18;;;2.97;;
35518;SDS011;21627;48.216;16.482;2023-03-23T14:29:33;15.00;;;2.90;;
35518;SDS011;21627;48.216;16.482;2023-03-23T14:31:59;11.05;;;2.60;;
35518;SDS011;21627;48.216;16.482;2023-03-23T14:34:27;8.13;;;3.15;;
35518;SDS011;21627;48.216;16.482;2023-03-23T14:36:56;5.40;;;2.85;;
35518;SDS011;21627;48.216;16.482;2023-03-23T14:39:24;28.27;;;4.10;;
35518;SDS011;21627;48.216;16.482;2023-03-23T14:42:15;9.98;;;2.63;;
35518;SDS011;21627;48.216;16.482;2023-03-23T14:44:48;4.53;;;2.35;;
35518;SDS011;21627;48.216;16.482;2023-03-23T14:47:18;6.60;;;2.22;;
35518;SDS011;21627;48.216;16.482;2023-03-23T14:49:53;7.30;;;2.95;;
35518;SDS011;21627;48.216;16.482;2023-03-23T14:52:26;3.15;;;2.50;;
35518;SDS011;21627;48.216;16.482;2023-03-23T14:55:16;4.80;;;2.80;;
35518;SDS011;21627;48.216;16.482;2023-03-23T14:57:48;6.97;;;2.75;;
35518;SDS011;21627;48.216;16.482;2023-03-23T15:00:20;4.53;;;3.10;;
35518;SDS011;21627;48.216;16.482;2023-03-23T15:02:56;6.80;;;2.72;;
35518;SDS011;21627;48.216;16.482;2023-03-23T15:05:27;5.38;;;2.30;;
35518;SDS011;21627;48.216;16.482;2023-03-23T15:13:34;7.53;;;3.25;;
35518;SDS011;21627;48.216;16.482;2023-03-23T15:16:24;3.58;;;2.50;;
35518;SDS011;21627;48.216;16.482;2023-03-23T15:18:54;6.47;;;2.83;;
35518;SDS011;21627;48.216;16.482;2023-03-23T15:21:32;7.78;;;3.28;;
35518;SDS011;21627;48.216;16.482;2023-03-23T15:24:01;5.13;;;3.08;;
35518;SDS011;21627;48.216;16.482;2023-03-23T15:26:45;13.65;;;3.17;;
35518;SDS011;21627;48.216;16.482;2023-03-23T15:31:53;6.22;;;3.03;;
35518;SDS011;21627;48.216;16.482;2023-03-23T15:37:01;11.45;;;3.70;;
35518;SDS011;21627;48.216;16.482;2023-03-23T15:39:30;11.55;;;3.30;;
35518;SDS011;21627;48.216;16.482;2023-03-23T15:41:57;6.50;;;3.13;;
35518;SDS011;21627;48.216;16.482;2023-03-23T15:44:27;6.22;;;3.75;;
35518;SDS011;21627;48.216;16.482;2023-03-23T15:47:17;9.50;;;3.78;;
35518;SDS011;21627;48.216;16.482;2023-03-23T15:49:45;10.25;;;3.92;;
35518;SDS011;21627;48.216;16.482;2023-03-23T15:52:23;9.43;;;4.03;;
35518;SDS011;21627;48.216;16.482;2023-03-23T15:54:50;8.07;;;4.05;;
35518;SDS011;21627;48.216;16.482;2023-03-23T15:57:16;10.32;;;4.38;;
35518;SDS011;21627;48.216;16.482;2023-03-23T15:59:42;12.65;;;4.60;;
35518;SDS011;21627;48.216;16.482;2023-03-23T16:02:13;11.82;;;4.65;;
35518;SDS011;21627;48.216;16.482;2023-03-23T16:04:48;9.23;;;3.70;;
35518;SDS011;21627;48.216;16.482;2023-03-23T16:07:18;10.90;;;3.97;;
35518;SDS011;21627;48.216;16.482;2023-03-23T16:09:48;16.98;;;4.65;;
35518;SDS011;21627;48.216;16.482;2023-03-23T16:12:15;12.23;;;4.72;;
35518;SDS011;21627;48.216;16.482;2023-03-23T16:14:43;12.95;;;4.60;;
35518;SDS011;21627;48.216;16.482;2023-03-23T16:17:11;8.10;;;4.28;;
35518;SDS011;21627;48.216;16.482;2023-03-23T16:19:45;17.00;;;4.95;;
35518;SDS011;21627;48.216;16.482;2023-03-23T16:22:13;11.38;;;4.07;;
35518;SDS011;21627;48.216;16.482;2023-03-23T16:24:42;13.52;;;6.20;;
35518;SDS011;21627;48.216;16.482;2023-03-23T16:27:09;14.65;;;5.32;;
35518;SDS011;21627;48.216;16.482;2023-03-23T16:29:37;14.75;;;5.40;;
35518;SDS011;21627;48.216;16.482;2023-03-23T16:32:25;11.73;;;5.68;;
35518;SDS011;21627;48.216;16.482;2023-03-23T16:34:52;20.70;;;5.75;;
35518;SDS011;21627;48.216;16.482;2023-03-23T16:37:19;9.10;;;4.45;;
35518;SDS011;21627;48.216;16.482;2023-03-23T16:39:47;15.52;;;5.05;;
35518;SDS011;21627;48.216;16.482;2023-03-23T16:42:14;10.32;;;4.90;;
35518;SDS011;21627;48.216;16.482;2023-03-23T16:44:42;12.90;;;5.32;;
35518;SDS011;21627;48.216;16.482;2023-03-23T16:47:09;11.43;;;5.07;;
35518;SDS011;21627;48.216;16.482;2023-03-23T16:49:36;10.65;;;5.85;;
35518;SDS011;21627;48.216;16.482;2023-03-23T16:52:03;13.93;;;6.88;;
35518;SDS011;21627;48.216;16.482;2023-03-23T16:54:31;15.07;;;8.88;;
35518;SDS011;21627;48.216;16.482;2023-03-23T16:56:58;14.15;;;8.63;;
35518;SDS011;21627;48.216;16.482;2023-03-23T16:59:28;15.07;;;7.50;;
35518;SDS011;21627;48.216;16.482;2023-03-23T17:01:55;17.00;;;8.00;;
35518;SDS011;21627;48.216;16.482;2023-03-23T17:04:29;12.27;;;7.30;;
35518;SDS011;21627;48.216;16.482;2023-03-23T17:06:58;15.35;;;7.88;;
35518;SDS011;21627;48.216;16.482;2023-03-23T17:09:26;14.60;;;7.22;;
35518;SDS011;21627;48.216;16.482;2023-03-23T17:11:54;15.20;;;6.95;;
35518;SDS011;21627;48.216;16.482;2023-03-23T17:14:21;16.00;;;7.25;;
35518;SDS011;21627;48.216;16.482;2023-03-23T17:16:48;17.35;;;8.05;;
35518;SDS011;21627;48.216;16.482;2023-03-23T17:19:15;15.10;;;7.55;;
35518;SDS011;21627;48.216;16.482;2023-03-23T17:21:43;14.55;;;7.85;;
35518;SDS011;21627;48.216;16.482;2023-03-23T17:24:10;14.23;;;7.35;;
35518;SDS011;21627;48.216;16.482;2023-03-23T17:26:38;16.33;;;7.38;;
35518;SDS011;21627;48.216;16.482;2023-03-23T17:29:05;16.70;;;7.53;;
35518;SDS011;21627;48.216;16.482;2023-03-23T17:31:33;20.67;;;7.40;;
35518;SDS011;21627;48.216;16.482;2023-03-23T17:34:00;31.48;;;13.45;;
35518;SDS011;21627;48.216;16.482;2023-03-23T17:36:29;50.30;;;25.45;;